createdAt,value
2019-05-14T00:00:45.941Z,99.90
2019-05-14T00:03:17.712Z,99.90
2019-05-14T00:05:51.477Z,99.90
2019-05-14T00:08:22.363Z,99.90
2019-05-14T00:10:53.857Z,99.90
2019-05-14T00:13:25.354Z,99.90
2019-05-14T00:15:57.306Z,99.90
2019-05-14T00:18:31.252Z,99.90
2019-05-14T00:21:02.151Z,99.90
2019-05-14T00:23:33.557Z,99.90
2019-05-14T00:26:05.307Z,99.90
2019-05-14T00:28:36.893Z,99.90
2019-05-14T00:31:08.353Z,99.90
2019-05-14T00:33:41.947Z,99.90
2019-05-14T00:36:14.003Z,99.90
2019-05-14T00:38:45.803Z,99.90
2019-05-14T00:41:18.594Z,99.90
2019-05-14T00:43:51.363Z,99.90
2019-05-14T00:46:24.341Z,99.90
2019-05-14T00:48:56.384Z,99.90
2019-05-14T00:51:27.811Z,99.90
2019-05-14T00:54:01.535Z,99.90
2019-05-14T00:56:32.376Z,99.90
2019-05-14T00:59:04.180Z,99.90
2019-05-14T01:01:35.938Z,99.90
2019-05-14T01:04:07.891Z,99.90
2019-05-14T01:06:39.184Z,99.90
2019-05-14T01:09:11.408Z,99.90
2019-05-14T01:11:43.184Z,99.90
2019-05-14T01:14:14.861Z,99.90
2019-05-14T01:16:46.129Z,99.90
2019-05-14T01:19:18.466Z,99.90
2019-05-14T01:21:51.047Z,99.90
2019-05-14T01:24:22.653Z,99.90
2019-05-14T01:26:53.955Z,99.90
2019-05-14T01:29:25.405Z,99.90
2019-05-14T01:31:56.762Z,99.90
2019-05-14T01:34:28.216Z,99.90
2019-05-14T01:37:02.222Z,99.90
2019-05-14T01:39:33.525Z,99.90
2019-05-14T01:42:05.010Z,99.90
2019-05-14T01:44:36.611Z,99.90
2019-05-14T01:47:08.360Z,99.90
2019-05-14T01:49:42.477Z,99.90
2019-05-14T01:52:13.555Z,99.90
2019-05-14T01:54:46.744Z,99.90
2019-05-14T01:57:18.403Z,99.90
2019-05-14T01:59:51.708Z,99.90
2019-05-14T02:02:23.681Z,99.90
2019-05-14T02:04:55.209Z,99.90
2019-05-14T02:07:26.751Z,99.90
2019-05-14T02:10:01.161Z,99.90
2019-05-14T02:12:32.287Z,99.90
2019-05-14T02:15:04.349Z,99.90
2019-05-14T02:17:36.111Z,99.90
2019-05-14T02:20:08.222Z,99.90
2019-05-14T02:22:41.733Z,99.90
2019-05-14T02:25:12.782Z,99.90
2019-05-14T02:27:44.647Z,99.90
2019-05-14T02:30:20.246Z,99.90
2019-05-14T02:32:50.257Z,99.90
2019-05-14T02:35:21.997Z,99.90
2019-05-14T02:37:53.682Z,99.90
2019-05-14T02:40:25.403Z,99.90
2019-05-14T02:42:59.344Z,99.90
2019-05-14T02:45:31.441Z,99.90
2019-05-14T02:48:02.912Z,99.90
2019-05-14T02:50:34.284Z,99.90
2019-05-14T02:53:05.964Z,99.90
2019-05-14T02:55:39.033Z,99.90
2019-05-14T02:58:11.058Z,99.90
2019-05-14T03:00:42.537Z,99.90
2019-05-14T03:03:13.941Z,99.90
2019-05-14T03:05:45.221Z,99.90
2019-05-14T03:08:19.520Z,99.90
2019-05-14T03:10:50.515Z,99.90
2019-05-14T03:13:22.620Z,99.90
2019-05-14T03:15:59.027Z,99.90
2019-05-14T03:18:30.064Z,99.90
2019-05-14T03:21:01.696Z,99.90
2019-05-14T03:23:34.915Z,99.90
2019-05-14T03:26:09.351Z,99.90
2019-05-14T03:28:39.991Z,99.90
2019-05-14T03:31:13.148Z,99.90
2019-05-14T03:33:45.159Z,99.90
2019-05-14T03:36:23.961Z,99.90
2019-05-14T03:38:50.854Z,99.90
2019-05-14T03:41:22.750Z,99.90
2019-05-14T03:43:54.059Z,99.90
2019-05-14T03:46:43.492Z,99.90
2019-05-14T03:49:00.091Z,99.90
2019-05-14T03:51:33.139Z,99.90
2019-05-14T03:54:07.715Z,99.90
2019-05-14T03:56:40.065Z,99.90
2019-05-14T03:59:11.565Z,99.90
2019-05-14T04:01:44.648Z,99.90
2019-05-14T04:04:19.450Z,99.60
2019-05-14T04:06:53.595Z,99.20
2019-05-14T04:09:29.379Z,95.80
2019-05-14T04:12:02.452Z,95.90
2019-05-14T04:14:34.802Z,94.30
2019-05-14T04:17:14.349Z,92.20
2019-05-14T04:19:43.680Z,89.60
2019-05-14T04:22:19.172Z,88.60
2019-05-14T04:24:52.083Z,86.60
2019-05-14T04:27:25.164Z,87.60
2019-05-14T04:29:59.790Z,86.50
2019-05-14T04:32:32.577Z,78.80
2019-05-14T04:35:04.574Z,83.10
2019-05-14T04:37:36.184Z,80.00
2019-05-14T04:40:10.493Z,75.40
2019-05-14T04:42:42.224Z,69.80
2019-05-14T04:45:13.470Z,71.80
2019-05-14T04:47:49.828Z,69.70
2019-05-14T04:50:25.482Z,71.70
2019-05-14T04:53:02.988Z,69.40
2019-05-14T04:55:34.331Z,70.80
2019-05-14T04:58:05.951Z,75.60
2019-05-14T05:00:39.142Z,85.40
2019-05-14T05:03:12.788Z,94.20
2019-05-14T05:05:44.123Z,99.90
2019-05-14T05:08:19.676Z,99.90
2019-05-14T05:10:49.838Z,99.90
2019-05-14T05:13:22.691Z,99.90
2019-05-14T05:15:54.035Z,99.90
2019-05-14T05:18:25.556Z,98.10
2019-05-14T05:20:58.323Z,90.80
2019-05-14T05:23:30.104Z,82.70
2019-05-14T05:26:01.421Z,70.60
2019-05-14T05:28:32.848Z,73.10
2019-05-14T05:31:04.817Z,74.30
2019-05-14T05:33:40.420Z,72.40
2019-05-14T05:36:12.148Z,73.10
2019-05-14T05:38:43.739Z,72.10
2019-05-14T05:41:15.555Z,76.00
2019-05-14T05:43:48.384Z,72.70
2019-05-14T05:46:20.589Z,69.80
2019-05-14T05:48:52.227Z,76.30
2019-05-14T05:51:23.772Z,85.40
2019-05-14T05:53:56.086Z,87.50
2019-05-14T05:56:28.825Z,90.30
2019-05-14T05:59:05.560Z,86.00
2019-05-14T06:01:45.307Z,88.00
2019-05-14T06:04:11.861Z,90.00
2019-05-14T06:06:44.515Z,87.10
2019-05-14T06:09:18.207Z,84.20
2019-05-14T06:11:50.713Z,86.90
2019-05-14T06:14:25.432Z,91.10
2019-05-14T06:16:58.928Z,90.80
2019-05-14T06:19:30.255Z,90.30
2019-05-14T06:22:04.175Z,91.20
2019-05-14T06:24:35.348Z,98.10
2019-05-14T06:27:09.192Z,99.90
2019-05-14T06:29:39.815Z,99.90
2019-05-14T06:32:11.687Z,99.90
2019-05-14T06:34:43.076Z,99.90
2019-05-14T06:37:14.871Z,99.90
2019-05-14T06:39:48.445Z,99.90
2019-05-14T06:42:19.778Z,99.90
2019-05-14T06:44:51.322Z,99.90
2019-05-14T06:47:22.974Z,99.90
2019-05-14T06:49:54.221Z,99.90
2019-05-14T06:52:29.159Z,99.90
2019-05-14T06:55:00.475Z,99.90
2019-05-14T06:57:33.288Z,99.90
2019-05-14T07:00:07.944Z,99.90
2019-05-14T07:02:43.585Z,99.90
2019-05-14T07:05:18.790Z,99.90
2019-05-14T07:07:54.161Z,99.90
2019-05-14T07:10:28.755Z,99.90
2019-05-14T07:12:59.623Z,99.90
2019-05-14T07:15:31.140Z,99.90
2019-05-14T07:18:03.138Z,99.90
2019-05-14T07:20:35.864Z,99.90
2019-05-14T07:23:08.257Z,99.90
2019-05-14T07:25:39.794Z,99.90
2019-05-14T07:28:11.279Z,99.90
2019-05-14T07:30:42.709Z,99.90
2019-05-14T07:33:14.032Z,99.90
2019-05-14T07:35:45.560Z,99.90
2019-05-14T07:38:19.481Z,99.90
2019-05-14T07:40:50.217Z,99.90
2019-05-14T07:43:24.303Z,99.90
2019-05-14T07:45:58.060Z,99.90
2019-05-14T07:48:28.980Z,99.90
2019-05-14T07:51:00.630Z,99.90
2019-05-14T07:53:38.747Z,99.90
2019-05-14T07:56:05.581Z,99.90
2019-05-14T07:58:38.650Z,99.90
2019-05-14T08:01:10.191Z,99.90
2019-05-14T08:03:41.538Z,99.90
2019-05-14T08:06:13.037Z,99.90
2019-05-14T08:08:44.696Z,99.90
2019-05-14T08:11:18.923Z,99.90
2019-05-14T08:13:50.017Z,99.90
2019-05-14T08:16:23.363Z,99.90
2019-05-14T08:18:54.868Z,99.90
2019-05-14T08:21:28.526Z,99.90
2019-05-14T08:23:59.451Z,99.90
2019-05-14T08:26:31.333Z,99.90
2019-05-14T08:29:02.724Z,99.90
2019-05-14T08:31:34.345Z,99.90
2019-05-14T08:34:06.694Z,99.90
2019-05-14T08:36:38.742Z,99.90
2019-05-14T08:39:10.072Z,99.90
2019-05-14T08:41:41.565Z,99.90
2019-05-14T08:44:15.521Z,99.90
2019-05-14T08:46:48.618Z,99.90
2019-05-14T08:49:37.243Z,99.90
2019-05-14T08:51:54.687Z,99.90
2019-05-14T08:54:27.866Z,99.90
2019-05-14T08:57:00.656Z,99.90
2019-05-14T08:59:32.294Z,99.90
2019-05-14T09:02:06.741Z,99.90
2019-05-14T09:04:42.965Z,99.90
2019-05-14T09:07:12.564Z,99.90
2019-05-14T09:09:44.342Z,99.90
2019-05-14T09:12:15.959Z,99.90
2019-05-14T09:14:48.456Z,99.90
2019-05-14T09:17:20.481Z,99.90
2019-05-14T09:20:02.094Z,99.90
2019-05-14T09:22:24.945Z,99.90
2019-05-14T09:24:59.885Z,99.90
2019-05-14T09:27:29.838Z,99.90
2019-05-14T09:30:01.523Z,99.90
2019-05-14T09:32:33.299Z,99.90
2019-05-14T09:35:04.986Z,99.90
2019-05-14T09:37:39.298Z,99.90
2019-05-14T09:40:09.846Z,99.90
2019-05-14T09:42:41.305Z,99.90
2019-05-14T09:45:12.761Z,99.90
2019-05-14T09:47:49.795Z,99.90
2019-05-14T09:50:23.090Z,99.90
2019-05-14T09:52:52.293Z,99.90
2019-05-14T09:55:23.659Z,99.90
2019-05-14T09:57:55.077Z,99.90
2019-05-14T10:00:26.701Z,99.90
2019-05-14T10:02:59.700Z,99.90
2019-05-14T10:05:32.069Z,99.90
2019-05-14T10:08:03.615Z,99.90
2019-05-14T10:10:36.149Z,99.90
2019-05-14T10:13:09.771Z,99.90
2019-05-14T10:15:40.925Z,99.90
2019-05-14T10:18:12.673Z,99.90
2019-05-14T10:20:46.112Z,99.90
2019-05-14T10:23:18.997Z,99.90
2019-05-14T10:25:51.135Z,99.90
2019-05-14T10:28:22.786Z,99.90
2019-05-14T10:30:54.220Z,99.90
2019-05-14T10:33:25.571Z,99.90
2019-05-14T10:35:58.890Z,99.90
2019-05-14T10:38:30.295Z,99.90
2019-05-14T10:41:02.132Z,99.90
2019-05-14T10:43:35.819Z,99.90
2019-05-14T10:46:09.085Z,99.90
2019-05-14T10:48:39.785Z,99.90
2019-05-14T10:51:11.250Z,99.90
2019-05-14T10:53:42.996Z,99.90
2019-05-14T10:56:19.064Z,99.90
2019-05-14T10:58:52.519Z,99.90
2019-05-14T11:01:24.025Z,99.90
2019-05-14T11:03:56.338Z,99.90
2019-05-14T11:06:29.600Z,99.90
2019-05-14T11:09:01.105Z,99.90
2019-05-14T11:11:33.985Z,99.90
2019-05-14T11:14:08.602Z,99.90
2019-05-14T11:16:41.839Z,99.90
2019-05-14T11:19:13.329Z,99.90
2019-05-14T11:21:45.036Z,99.90
2019-05-14T11:24:18.862Z,99.90
2019-05-14T11:26:50.404Z,99.90
2019-05-14T11:29:22.368Z,99.90
2019-05-14T11:31:54.338Z,99.90
2019-05-14T11:34:25.621Z,99.90
2019-05-14T11:36:58.899Z,99.90
2019-05-14T11:39:31.696Z,99.90
2019-05-14T11:42:03.850Z,99.90
2019-05-14T11:44:35.128Z,99.90
2019-05-14T11:47:09.096Z,99.90
2019-05-14T11:49:40.883Z,99.90
2019-05-14T11:52:12.421Z,99.90
2019-05-14T11:54:45.436Z,99.90
2019-05-14T11:57:19.276Z,99.90
2019-05-14T11:59:50.880Z,99.90
2019-05-14T12:02:22.765Z,99.90
2019-05-14T12:04:54.399Z,99.90
2019-05-14T12:07:27.946Z,99.90
2019-05-14T12:09:59.105Z,99.90
2019-05-14T12:12:31.059Z,99.90
2019-05-14T12:15:02.442Z,99.90
2019-05-14T12:17:34.425Z,99.90
2019-05-14T12:20:08.845Z,99.90
2019-05-14T12:22:41.921Z,99.90
2019-05-14T12:25:18.597Z,99.90
2019-05-14T12:27:49.788Z,99.90
2019-05-14T12:30:21.545Z,99.90
2019-05-14T12:32:58.839Z,99.90
2019-05-14T12:35:30.223Z,99.90
2019-05-14T12:38:01.548Z,99.90
2019-05-14T12:40:33.048Z,99.90
2019-05-14T12:43:09.473Z,99.90
2019-05-14T12:45:49.099Z,99.90
2019-05-14T12:48:15.309Z,99.90
2019-05-14T12:50:49.004Z,99.90
2019-05-14T12:53:24.038Z,99.90
2019-05-14T12:55:55.567Z,99.90
2019-05-14T12:58:29.588Z,99.90
2019-05-14T13:01:00.961Z,99.90
2019-05-14T13:03:32.262Z,99.90
2019-05-14T13:06:04.952Z,99.90
2019-05-14T13:08:38.786Z,99.90
2019-05-14T13:11:10.014Z,99.90
2019-05-14T13:13:42.820Z,99.90
2019-05-14T13:16:15.136Z,99.90
2019-05-14T13:18:49.816Z,99.90
2019-05-14T13:21:20.607Z,99.90
2019-05-14T13:23:52.213Z,99.90
2019-05-14T13:26:25.074Z,99.90
2019-05-14T13:28:59.409Z,99.90
2019-05-14T13:31:31.278Z,99.90
2019-05-14T13:34:02.604Z,99.90
2019-05-14T13:36:35.571Z,99.90
2019-05-14T13:39:09.295Z,99.90
2019-05-14T13:41:41.842Z,99.90
2019-05-14T13:44:23.693Z,99.90
2019-05-14T13:46:48.595Z,99.90
2019-05-14T13:49:20.628Z,99.90
2019-05-14T13:51:52.156Z,99.90
2019-05-14T13:54:23.851Z,99.90
2019-05-14T13:56:55.418Z,99.90
2019-05-14T13:59:28.407Z,99.90
2019-05-14T14:02:00.136Z,99.90
2019-05-14T14:04:31.613Z,99.90
2019-05-14T14:07:03.150Z,99.90
2019-05-14T14:09:34.627Z,99.90
2019-05-14T14:12:08.235Z,99.90
2019-05-14T14:14:39.673Z,99.90
2019-05-14T14:17:13.045Z,99.90
2019-05-14T14:19:44.521Z,99.90
2019-05-14T14:22:19.097Z,99.90
2019-05-14T14:24:49.801Z,99.90
2019-05-14T14:27:21.605Z,99.90
2019-05-14T14:29:55.137Z,99.90
2019-05-14T14:32:27.444Z,99.90
2019-05-14T14:35:01.445Z,99.90
2019-05-14T14:37:34.661Z,99.90
2019-05-14T14:40:09.292Z,99.90
2019-05-14T14:42:40.363Z,99.90
2019-05-14T14:45:29.977Z,99.90
2019-05-14T14:48:01.723Z,99.90
2019-05-14T14:50:32.995Z,99.90
2019-05-14T14:53:09.252Z,99.90
2019-05-14T14:56:00.979Z,99.90
2019-05-14T14:58:32.567Z,99.90
2019-05-14T15:01:04.151Z,99.90
2019-05-14T15:03:36.173Z,99.90
2019-05-14T15:06:11.834Z,99.90
2019-05-14T15:08:49.580Z,99.90
2019-05-14T15:11:21.615Z,99.90
2019-05-14T15:13:55.970Z,99.90
2019-05-14T15:16:29.189Z,99.90
2019-05-14T15:19:19.447Z,99.90
2019-05-14T15:21:51.565Z,99.90
2019-05-14T15:24:27.514Z,99.90
2019-05-14T15:27:08.069Z,99.90
2019-05-14T15:29:34.064Z,99.90
2019-05-14T15:32:09.307Z,99.90
2019-05-14T15:34:40.322Z,99.90
2019-05-14T15:37:19.845Z,99.90
2019-05-14T15:39:51.713Z,99.90
2019-05-14T15:42:23.052Z,99.90
2019-05-14T15:44:59.805Z,99.90
2019-05-14T15:47:31.955Z,99.90
2019-05-14T15:50:09.346Z,99.90
2019-05-14T15:52:41.214Z,99.90
2019-05-14T15:55:20.851Z,99.90
2019-05-14T15:57:52.397Z,99.90
2019-05-14T16:00:29.016Z,99.90
2019-05-14T16:03:02.793Z,99.90
2019-05-14T16:05:39.222Z,99.90
2019-05-14T16:08:10.389Z,99.90
2019-05-14T16:10:42.141Z,99.90
2019-05-14T16:13:20.901Z,99.90
2019-05-14T16:15:50.390Z,99.90
2019-05-14T16:18:22.607Z,99.90
2019-05-14T16:20:54.498Z,99.90
2019-05-14T16:23:28.182Z,99.90
2019-05-14T16:26:01.703Z,99.90
2019-05-14T16:28:39.121Z,99.90
2019-05-14T16:31:12.703Z,99.90
2019-05-14T16:33:49.701Z,99.90
2019-05-14T16:36:25.150Z,99.90
2019-05-14T16:39:23.292Z,99.90
2019-05-14T16:42:11.221Z,99.90
2019-05-14T16:44:48.933Z,99.90
2019-05-14T16:47:21.564Z,99.90
2019-05-14T16:49:53.023Z,99.90
2019-05-14T16:52:25.021Z,99.90
2019-05-14T16:55:14.969Z,99.90
2019-05-14T16:57:29.527Z,99.90
2019-05-14T17:00:01.965Z,99.90
2019-05-14T17:02:33.337Z,99.90
2019-05-14T17:05:05.562Z,99.90
2019-05-14T17:07:42.975Z,99.90
2019-05-14T17:10:18.212Z,99.90
2019-05-14T17:12:57.276Z,99.90
2019-05-14T17:15:35.289Z,99.90
2019-05-14T17:18:08.859Z,99.90
2019-05-14T17:20:42.052Z,99.90
2019-05-14T17:23:16.155Z,99.90
2019-05-14T17:25:48.982Z,99.90
2019-05-14T17:28:28.585Z,99.90
2019-05-14T17:31:42.829Z,99.90
2019-05-14T17:34:14.351Z,99.90
2019-05-14T17:36:48.351Z,99.90
2019-05-14T17:39:19.846Z,99.90
2019-05-14T17:41:53.411Z,99.90
2019-05-14T17:44:24.888Z,99.90
2019-05-14T17:46:58.562Z,99.90
2019-05-14T17:49:29.741Z,99.90
2019-05-14T17:52:09.594Z,99.90
2019-05-14T17:54:44.543Z,99.90
2019-05-14T17:57:24.457Z,99.90
2019-05-14T17:59:54.229Z,99.90
2019-05-14T18:02:28.588Z,99.90
2019-05-14T18:05:05.365Z,99.90
2019-05-14T18:07:41.266Z,99.90
2019-05-14T18:10:13.760Z,99.90
2019-05-14T18:13:01.433Z,99.90
2019-05-14T18:15:33.143Z,99.90
2019-05-14T18:18:18.411Z,99.90
2019-05-14T18:20:52.401Z,99.90
2019-05-14T18:23:24.978Z,99.90
2019-05-14T18:26:07.154Z,99.90
2019-05-14T18:28:32.193Z,99.90
2019-05-14T18:31:04.693Z,99.90
2019-05-14T18:33:39.944Z,99.90
2019-05-14T18:36:18.851Z,99.90
2019-05-14T18:38:54.129Z,99.90
2019-05-14T18:41:25.914Z,99.90
2019-05-14T18:44:00.567Z,99.90
2019-05-14T18:46:33.017Z,99.90
2019-05-14T18:49:08.569Z,99.90
2019-05-14T18:51:39.381Z,99.90
2019-05-14T18:54:10.982Z,99.90
2019-05-14T18:56:42.839Z,99.90
2019-05-14T18:59:15.311Z,99.90
2019-05-14T19:01:53.542Z,99.90
2019-05-14T19:04:27.901Z,99.90
2019-05-14T19:07:11.322Z,99.90
2019-05-14T19:09:46.185Z,99.90
2019-05-14T19:12:38.490Z,99.90
2019-05-14T19:15:10.065Z,99.90
2019-05-14T19:17:42.060Z,99.90
2019-05-14T19:20:20.222Z,99.90
2019-05-14T19:22:48.907Z,99.90
2019-05-14T19:25:20.435Z,99.90
2019-05-14T19:27:54.230Z,99.90
2019-05-14T19:30:24.989Z,99.90
2019-05-14T19:33:08.507Z,99.90
2019-05-14T19:35:49.446Z,99.90
2019-05-14T19:38:22.577Z,99.90
2019-05-14T19:41:08.651Z,99.90
2019-05-14T19:43:42.489Z,99.90
2019-05-14T19:46:14.397Z,99.90
2019-05-14T19:49:08.002Z,99.90
2019-05-14T19:51:45.579Z,99.90
2019-05-14T19:54:20.052Z,99.90
2019-05-14T19:57:24.505Z,99.90
2019-05-14T19:59:57.896Z,99.90
2019-05-14T20:02:51.012Z,99.90
2019-05-14T20:05:23.094Z,99.90
2019-05-14T20:07:59.537Z,99.90
2019-05-14T20:10:31.649Z,99.90
2019-05-14T20:13:03.877Z,99.90
2019-05-14T20:15:38.833Z,99.90
2019-05-14T20:18:12.894Z,99.90
2019-05-14T20:20:44.977Z,99.90
2019-05-14T20:23:20.607Z,99.90
2019-05-14T20:25:54.442Z,99.90
2019-05-14T20:28:27.202Z,99.90
2019-05-14T20:31:10.199Z,99.90
2019-05-14T20:33:48.470Z,99.90
2019-05-14T20:36:28.292Z,99.90
2019-05-14T20:39:08.651Z,99.90
2019-05-14T20:42:01.236Z,99.90
2019-05-14T20:44:38.439Z,99.90
2019-05-14T20:47:12.931Z,99.90
2019-05-14T20:49:46.375Z,99.90
2019-05-14T20:52:28.547Z,99.90
2019-05-14T20:55:09.702Z,99.90
2019-05-14T20:57:48.894Z,99.90
2019-05-14T21:00:34.740Z,99.90
2019-05-14T21:03:31.269Z,99.90
2019-05-14T21:06:20.806Z,99.90
2019-05-14T21:09:13.138Z,99.90
2019-05-14T21:11:52.468Z,99.90
2019-05-14T21:14:33.469Z,99.90
2019-05-14T21:17:20.942Z,99.90
2019-05-14T21:20:19.147Z,99.90
2019-05-14T21:22:52.844Z,99.90
2019-05-14T21:25:29.635Z,99.90
2019-05-14T21:29:21.855Z,99.90
2019-05-14T21:32:01.576Z,99.90
2019-05-14T21:34:42.829Z,99.90
2019-05-14T21:37:15.013Z,99.90
2019-05-14T21:39:48.909Z,99.90
2019-05-14T21:42:19.733Z,99.90
2019-05-14T21:44:52.164Z,99.90
2019-05-14T21:47:23.852Z,99.90
2019-05-14T21:49:55.471Z,99.90
2019-05-14T21:52:28.940Z,99.90
2019-05-14T21:55:00.066Z,99.90
2019-05-14T21:57:32.817Z,99.90
2019-05-14T22:00:11.057Z,99.90
2019-05-14T22:02:44.604Z,99.90
2019-05-14T22:05:18.807Z,99.90
2019-05-14T22:07:49.994Z,99.90
2019-05-14T22:10:22.490Z,99.90
2019-05-14T22:12:54.060Z,99.90
2019-05-14T22:15:25.403Z,99.90
2019-05-14T22:17:58.730Z,99.90
2019-05-14T22:20:31.869Z,99.90
2019-05-14T22:23:03.411Z,99.90
2019-05-14T22:25:35.888Z,99.90
2019-05-14T22:28:15.100Z,99.90
2019-05-14T22:30:40.418Z,99.90
2019-05-14T22:33:11.756Z,99.90
2019-05-14T22:35:43.365Z,99.90
2019-05-14T22:38:15.080Z,99.90
2019-05-14T22:40:48.244Z,99.90
2019-05-14T22:43:20.263Z,99.90
2019-05-14T22:45:51.817Z,99.90
2019-05-14T22:48:23.203Z,99.90
2019-05-14T22:50:54.733Z,99.90
2019-05-14T22:53:27.850Z,99.90
2019-05-14T22:55:59.158Z,99.90
2019-05-14T22:58:31.676Z,99.90
2019-05-14T23:01:14.244Z,99.90
2019-05-14T23:03:36.267Z,99.90
2019-05-14T23:06:08.993Z,99.90
2019-05-14T23:08:40.783Z,99.90
2019-05-14T23:11:12.558Z,99.90
2019-05-14T23:13:44.247Z,99.90
2019-05-14T23:16:30.160Z,99.90
2019-05-14T23:18:49.332Z,99.90
2019-05-14T23:21:21.230Z,99.90
2019-05-14T23:23:52.717Z,99.90
2019-05-14T23:26:25.194Z,99.90
2019-05-14T23:28:58.586Z,99.90
2019-05-14T23:31:29.650Z,99.90
2019-05-14T23:34:01.187Z,99.90
2019-05-14T23:36:32.836Z,99.90
2019-05-14T23:39:08.696Z,99.90
2019-05-14T23:41:40.253Z,99.90
2019-05-14T23:44:12.564Z,99.90
2019-05-14T23:46:44.143Z,99.90
2019-05-14T23:49:15.732Z,99.90
2019-05-14T23:51:47.955Z,99.90
2019-05-14T23:54:20.965Z,99.90
2019-05-14T23:56:52.809Z,99.90
2019-05-14T23:59:25.024Z,99.90
